sensor_id;sensor_type;location;lat;lon;timestamp;P1;durP1;ratioP1;P2;durP2;ratioP2
52590;SDS011;38483;42.620;25.394;2023-01-15T00:02:08;9.80;;;6.73;;
52590;SDS011;38483;42.620;25.394;2023-01-15T00:04:35;10.30;;;6.93;;
52590;SDS011;38483;42.620;25.394;2023-01-15T00:07:02;9.77;;;6.73;;
52590;SDS011;38483;42.620;25.394;2023-01-15T00:09:30;11.37;;;6.97;;
52590;SDS011;38483;42.620;25.394;2023-01-15T00:11:57;10.13;;;6.50;;
52590;SDS011;38483;42.620;25.394;2023-01-15T00:14:24;10.23;;;6.37;;
52590;SDS011;38483;42.620;25.394;2023-01-15T00:16:51;11.10;;;6.73;;
52590;SDS011;38483;42.620;25.394;2023-01-15T00:19:18;10.40;;;6.87;;
52590;SDS011;38483;42.620;25.394;2023-01-15T00:21:45;12.40;;;7.27;;
52590;SDS011;38483;42.620;25.394;2023-01-15T00:24:12;10.50;;;6.80;;
52590;SDS011;38483;42.620;25.394;2023-01-15T00:26:58;10.17;;;6.73;;
52590;SDS011;38483;42.620;25.394;2023-01-15T00:29:45;9.73;;;6.67;;
52590;SDS011;38483;42.620;25.394;2023-01-15T00:32:12;14.13;;;7.93;;
52590;SDS011;38483;42.620;25.394;2023-01-15T00:34:39;10.13;;;6.73;;
52590;SDS011;38483;42.620;25.394;2023-01-15T00:37:06;10.40;;;6.30;;
52590;SDS011;38483;42.620;25.394;2023-01-15T00:39:33;9.37;;;6.03;;
52590;SDS011;38483;42.620;25.394;2023-01-15T00:42:01;10.47;;;6.47;;
52590;SDS011;38483;42.620;25.394;2023-01-15T00:44:31;10.33;;;6.27;;
52590;SDS011;38483;42.620;25.394;2023-01-15T00:46:59;11.00;;;6.67;;
52590;SDS011;38483;42.620;25.394;2023-01-15T00:49:26;8.63;;;6.13;;
52590;SDS011;38483;42.620;25.394;2023-01-15T00:51:53;10.80;;;6.43;;
52590;SDS011;38483;42.620;25.394;2023-01-15T00:54:20;11.43;;;7.23;;
52590;SDS011;38483;42.620;25.394;2023-01-15T00:56:47;10.27;;;6.40;;
52590;SDS011;38483;42.620;25.394;2023-01-15T00:59:14;9.63;;;6.97;;
52590;SDS011;38483;42.620;25.394;2023-01-15T01:01:41;10.53;;;6.30;;
52590;SDS011;38483;42.620;25.394;2023-01-15T01:04:09;9.10;;;6.03;;
52590;SDS011;38483;42.620;25.394;2023-01-15T01:06:36;10.47;;;6.47;;
52590;SDS011;38483;42.620;25.394;2023-01-15T01:09:02;9.63;;;6.40;;
52590;SDS011;38483;42.620;25.394;2023-01-15T01:11:30;9.10;;;6.37;;
52590;SDS011;38483;42.620;25.394;2023-01-15T01:14:00;10.47;;;6.47;;
52590;SDS011;38483;42.620;25.394;2023-01-15T01:19:14;12.40;;;7.10;;
52590;SDS011;38483;42.620;25.394;2023-01-15T01:21:44;11.07;;;6.93;;
52590;SDS011;38483;42.620;25.394;2023-01-15T01:24:12;9.63;;;6.93;;
52590;SDS011;38483;42.620;25.394;2023-01-15T01:26:42;9.83;;;7.03;;
52590;SDS011;38483;42.620;25.394;2023-01-15T01:29:14;11.33;;;6.43;;
52590;SDS011;38483;42.620;25.394;2023-01-15T01:31:42;11.43;;;6.80;;
52590;SDS011;38483;42.620;25.394;2023-01-15T01:34:10;8.80;;;6.27;;
52590;SDS011;38483;42.620;25.394;2023-01-15T01:36:39;10.13;;;6.03;;
52590;SDS011;38483;42.620;25.394;2023-01-15T01:39:13;7.97;;;5.97;;
52590;SDS011;38483;42.620;25.394;2023-01-15T01:41:42;10.60;;;6.63;;
52590;SDS011;38483;42.620;25.394;2023-01-15T01:46:59;8.93;;;6.07;;
52590;SDS011;38483;42.620;25.394;2023-01-15T01:49:28;10.07;;;6.27;;
52590;SDS011;38483;42.620;25.394;2023-01-15T01:51:58;9.60;;;6.47;;
52590;SDS011;38483;42.620;25.394;2023-01-15T01:54:29;9.20;;;6.40;;
52590;SDS011;38483;42.620;25.394;2023-01-15T01:56:58;10.37;;;6.63;;
52590;SDS011;38483;42.620;25.394;2023-01-15T01:59:26;13.30;;;6.43;;
52590;SDS011;38483;42.620;25.394;2023-01-15T02:01:53;10.00;;;5.83;;
52590;SDS011;38483;42.620;25.394;2023-01-15T02:04:21;8.73;;;6.47;;
52590;SDS011;38483;42.620;25.394;2023-01-15T02:06:51;9.23;;;6.70;;
52590;SDS011;38483;42.620;25.394;2023-01-15T02:09:19;10.30;;;7.13;;
52590;SDS011;38483;42.620;25.394;2023-01-15T02:11:46;9.63;;;6.50;;
52590;SDS011;38483;42.620;25.394;2023-01-15T02:14:19;9.97;;;7.17;;
52590;SDS011;38483;42.620;25.394;2023-01-15T02:17:14;11.93;;;7.17;;
52590;SDS011;38483;42.620;25.394;2023-01-15T02:22:33;11.07;;;7.50;;
52590;SDS011;38483;42.620;25.394;2023-01-15T02:25:18;10.80;;;6.77;;
52590;SDS011;38483;42.620;25.394;2023-01-15T02:28:03;9.63;;;6.50;;
52590;SDS011;38483;42.620;25.394;2023-01-15T02:30:56;9.43;;;6.70;;
52590;SDS011;38483;42.620;25.394;2023-01-15T02:33:50;10.83;;;6.63;;
52590;SDS011;38483;42.620;25.394;2023-01-15T02:36:22;11.40;;;7.20;;
52590;SDS011;38483;42.620;25.394;2023-01-15T02:38:52;10.60;;;7.17;;
52590;SDS011;38483;42.620;25.394;2023-01-15T02:41:29;8.77;;;6.53;;
52590;SDS011;38483;42.620;25.394;2023-01-15T02:44:03;9.50;;;6.77;;
52590;SDS011;38483;42.620;25.394;2023-01-15T02:46:32;11.60;;;7.03;;
52590;SDS011;38483;42.620;25.394;2023-01-15T02:49:06;11.37;;;7.07;;
52590;SDS011;38483;42.620;25.394;2023-01-15T02:54:46;12.13;;;6.40;;
52590;SDS011;38483;42.620;25.394;2023-01-15T02:57:19;11.27;;;6.97;;
52590;SDS011;38483;42.620;25.394;2023-01-15T02:59:54;9.60;;;6.57;;
52590;SDS011;38483;42.620;25.394;2023-01-15T03:02:26;10.43;;;6.77;;
52590;SDS011;38483;42.620;25.394;2023-01-15T03:05:05;9.67;;;6.50;;
52590;SDS011;38483;42.620;25.394;2023-01-15T03:07:41;9.17;;;6.50;;
52590;SDS011;38483;42.620;25.394;2023-01-15T03:10:12;9.63;;;6.23;;
52590;SDS011;38483;42.620;25.394;2023-01-15T03:12:54;10.87;;;7.30;;
52590;SDS011;38483;42.620;25.394;2023-01-15T03:15:50;9.97;;;6.80;;
52590;SDS011;38483;42.620;25.394;2023-01-15T03:18:42;11.90;;;7.97;;
52590;SDS011;38483;42.620;25.394;2023-01-15T03:21:25;12.37;;;7.77;;
52590;SDS011;38483;42.620;25.394;2023-01-15T03:23:56;11.77;;;8.00;;
52590;SDS011;38483;42.620;25.394;2023-01-15T03:26:27;11.50;;;7.63;;
52590;SDS011;38483;42.620;25.394;2023-01-15T03:28:57;10.37;;;7.60;;
52590;SDS011;38483;42.620;25.394;2023-01-15T03:31:27;12.67;;;7.77;;
52590;SDS011;38483;42.620;25.394;2023-01-15T03:33:56;12.53;;;7.73;;
52590;SDS011;38483;42.620;25.394;2023-01-15T03:36:24;10.53;;;6.73;;
52590;SDS011;38483;42.620;25.394;2023-01-15T03:38:53;10.77;;;7.10;;
52590;SDS011;38483;42.620;25.394;2023-01-15T03:44:17;13.67;;;8.00;;
52590;SDS011;38483;42.620;25.394;2023-01-15T03:47:02;17.80;;;9.53;;
52590;SDS011;38483;42.620;25.394;2023-01-15T03:49:41;13.63;;;8.60;;
52590;SDS011;38483;42.620;25.394;2023-01-15T03:52:38;14.00;;;7.63;;
52590;SDS011;38483;42.620;25.394;2023-01-15T03:58:04;12.00;;;7.80;;
52590;SDS011;38483;42.620;25.394;2023-01-15T04:00:44;11.90;;;7.17;;
52590;SDS011;38483;42.620;25.394;2023-01-15T04:03:18;11.77;;;7.00;;
52590;SDS011;38483;42.620;25.394;2023-01-15T04:05:47;10.30;;;6.80;;
52590;SDS011;38483;42.620;25.394;2023-01-15T04:08:19;11.60;;;7.20;;
52590;SDS011;38483;42.620;25.394;2023-01-15T04:10:58;14.37;;;7.20;;
52590;SDS011;38483;42.620;25.394;2023-01-15T04:13:30;11.00;;;7.43;;
52590;SDS011;38483;42.620;25.394;2023-01-15T04:15:58;12.27;;;7.30;;
52590;SDS011;38483;42.620;25.394;2023-01-15T04:18:26;12.70;;;7.33;;
52590;SDS011;38483;42.620;25.394;2023-01-15T04:20:53;11.40;;;7.10;;
52590;SDS011;38483;42.620;25.394;2023-01-15T04:23:21;11.13;;;7.57;;
52590;SDS011;38483;42.620;25.394;2023-01-15T04:25:49;11.80;;;7.50;;
52590;SDS011;38483;42.620;25.394;2023-01-15T04:28:16;11.27;;;6.70;;
52590;SDS011;38483;42.620;25.394;2023-01-15T04:30:43;12.27;;;7.83;;
52590;SDS011;38483;42.620;25.394;2023-01-15T04:33:10;12.90;;;7.87;;
52590;SDS011;38483;42.620;25.394;2023-01-15T04:35:37;12.63;;;7.90;;
52590;SDS011;38483;42.620;25.394;2023-01-15T04:38:04;12.87;;;7.50;;
52590;SDS011;38483;42.620;25.394;2023-01-15T04:40:31;13.03;;;8.20;;
52590;SDS011;38483;42.620;25.394;2023-01-15T04:43:17;16.10;;;8.37;;
52590;SDS011;38483;42.620;25.394;2023-01-15T04:46:02;15.47;;;9.13;;
52590;SDS011;38483;42.620;25.394;2023-01-15T04:48:29;15.43;;;9.87;;
52590;SDS011;38483;42.620;25.394;2023-01-15T04:51:00;12.93;;;7.73;;
52590;SDS011;38483;42.620;25.394;2023-01-15T04:53:28;15.07;;;8.53;;
52590;SDS011;38483;42.620;25.394;2023-01-15T04:56:02;12.20;;;7.83;;
52590;SDS011;38483;42.620;25.394;2023-01-15T04:58:30;12.50;;;8.03;;
52590;SDS011;38483;42.620;25.394;2023-01-15T05:00:58;12.53;;;7.20;;
52590;SDS011;38483;42.620;25.394;2023-01-15T05:03:27;10.60;;;7.40;;
52590;SDS011;38483;42.620;25.394;2023-01-15T05:05:54;11.07;;;7.57;;
52590;SDS011;38483;42.620;25.394;2023-01-15T05:08:21;12.50;;;8.30;;
52590;SDS011;38483;42.620;25.394;2023-01-15T05:10:48;14.70;;;8.73;;
52590;SDS011;38483;42.620;25.394;2023-01-15T05:13:15;12.63;;;8.50;;
52590;SDS011;38483;42.620;25.394;2023-01-15T05:15:41;13.00;;;8.37;;
52590;SDS011;38483;42.620;25.394;2023-01-15T05:18:11;12.57;;;7.50;;
52590;SDS011;38483;42.620;25.394;2023-01-15T05:20:41;11.90;;;8.10;;
52590;SDS011;38483;42.620;25.394;2023-01-15T05:23:08;10.60;;;7.70;;
52590;SDS011;38483;42.620;25.394;2023-01-15T05:25:36;12.37;;;8.30;;
52590;SDS011;38483;42.620;25.394;2023-01-15T05:28:03;12.10;;;8.10;;
52590;SDS011;38483;42.620;25.394;2023-01-15T05:30:30;13.73;;;8.47;;
52590;SDS011;38483;42.620;25.394;2023-01-15T05:32:57;15.67;;;9.80;;
52590;SDS011;38483;42.620;25.394;2023-01-15T05:35:24;13.20;;;8.80;;
52590;SDS011;38483;42.620;25.394;2023-01-15T05:37:51;17.60;;;10.43;;
52590;SDS011;38483;42.620;25.394;2023-01-15T05:40:18;13.27;;;9.70;;
52590;SDS011;38483;42.620;25.394;2023-01-15T05:42:45;15.77;;;9.97;;
52590;SDS011;38483;42.620;25.394;2023-01-15T05:45:12;16.43;;;10.37;;
52590;SDS011;38483;42.620;25.394;2023-01-15T05:47:39;14.67;;;9.83;;
52590;SDS011;38483;42.620;25.394;2023-01-15T05:50:06;17.43;;;10.87;;
52590;SDS011;38483;42.620;25.394;2023-01-15T05:52:34;22.87;;;11.30;;
52590;SDS011;38483;42.620;25.394;2023-01-15T05:55:01;18.80;;;12.60;;
52590;SDS011;38483;42.620;25.394;2023-01-15T05:57:28;17.83;;;11.67;;
52590;SDS011;38483;42.620;25.394;2023-01-15T05:59:55;18.13;;;12.00;;
52590;SDS011;38483;42.620;25.394;2023-01-15T06:02:22;16.83;;;10.83;;
52590;SDS011;38483;42.620;25.394;2023-01-15T06:04:49;18.13;;;11.00;;
52590;SDS011;38483;42.620;25.394;2023-01-15T06:07:16;17.20;;;10.03;;
52590;SDS011;38483;42.620;25.394;2023-01-15T06:09:44;16.40;;;9.83;;
52590;SDS011;38483;42.620;25.394;2023-01-15T06:12:11;13.63;;;9.23;;
52590;SDS011;38483;42.620;25.394;2023-01-15T06:14:38;13.73;;;8.77;;
52590;SDS011;38483;42.620;25.394;2023-01-15T06:17:05;13.27;;;8.60;;
52590;SDS011;38483;42.620;25.394;2023-01-15T06:19:32;16.20;;;10.33;;
52590;SDS011;38483;42.620;25.394;2023-01-15T06:21:59;16.30;;;10.57;;
52590;SDS011;38483;42.620;25.394;2023-01-15T06:24:26;19.77;;;11.83;;
52590;SDS011;38483;42.620;25.394;2023-01-15T06:26:53;20.20;;;13.20;;
52590;SDS011;38483;42.620;25.394;2023-01-15T06:29:21;20.87;;;13.70;;
52590;SDS011;38483;42.620;25.394;2023-01-15T06:31:48;20.97;;;13.53;;
52590;SDS011;38483;42.620;25.394;2023-01-15T06:34:15;18.97;;;11.87;;
52590;SDS011;38483;42.620;25.394;2023-01-15T06:36:43;20.60;;;13.73;;
52590;SDS011;38483;42.620;25.394;2023-01-15T06:39:10;19.23;;;12.60;;
52590;SDS011;38483;42.620;25.394;2023-01-15T06:41:37;20.03;;;12.87;;
52590;SDS011;38483;42.620;25.394;2023-01-15T06:45:03;14.97;;;9.80;;
52590;SDS011;38483;42.620;25.394;2023-01-15T06:47:49;13.50;;;8.77;;
52590;SDS011;38483;42.620;25.394;2023-01-15T06:50:16;16.60;;;9.53;;
52590;SDS011;38483;42.620;25.394;2023-01-15T06:52:43;14.73;;;10.13;;
52590;SDS011;38483;42.620;25.394;2023-01-15T06:55:10;16.60;;;10.87;;
52590;SDS011;38483;42.620;25.394;2023-01-15T06:57:38;15.17;;;9.60;;
52590;SDS011;38483;42.620;25.394;2023-01-15T07:00:06;18.40;;;11.53;;
52590;SDS011;38483;42.620;25.394;2023-01-15T07:02:34;19.53;;;11.20;;
52590;SDS011;38483;42.620;25.394;2023-01-15T07:05:02;17.33;;;11.03;;
52590;SDS011;38483;42.620;25.394;2023-01-15T07:07:30;14.33;;;9.33;;
52590;SDS011;38483;42.620;25.394;2023-01-15T07:09:57;15.93;;;9.90;;
52590;SDS011;38483;42.620;25.394;2023-01-15T07:12:24;20.13;;;11.47;;
52590;SDS011;38483;42.620;25.394;2023-01-15T07:14:51;17.93;;;11.20;;
52590;SDS011;38483;42.620;25.394;2023-01-15T07:17:18;20.87;;;12.20;;
52590;SDS011;38483;42.620;25.394;2023-01-15T07:19:45;21.00;;;13.77;;
52590;SDS011;38483;42.620;25.394;2023-01-15T07:22:12;23.80;;;14.73;;
52590;SDS011;38483;42.620;25.394;2023-01-15T07:24:39;20.77;;;14.37;;
52590;SDS011;38483;42.620;25.394;2023-01-15T07:27:07;23.93;;;15.73;;
52590;SDS011;38483;42.620;25.394;2023-01-15T07:29:34;22.77;;;15.50;;
52590;SDS011;38483;42.620;25.394;2023-01-15T07:32:01;21.20;;;14.50;;
52590;SDS011;38483;42.620;25.394;2023-01-15T07:35:21;20.53;;;11.53;;
52590;SDS011;38483;42.620;25.394;2023-01-15T07:38:42;16.23;;;10.37;;
52590;SDS011;38483;42.620;25.394;2023-01-15T07:42:03;17.13;;;12.03;;
52590;SDS011;38483;42.620;25.394;2023-01-15T07:45:43;17.77;;;11.63;;
52590;SDS011;38483;42.620;25.394;2023-01-15T07:49:22;20.20;;;13.13;;
52590;SDS011;38483;42.620;25.394;2023-01-15T07:52:42;23.37;;;14.07;;
52590;SDS011;38483;42.620;25.394;2023-01-15T07:56:03;24.90;;;14.90;;
52590;SDS011;38483;42.620;25.394;2023-01-15T07:59:24;18.87;;;11.77;;
52590;SDS011;38483;42.620;25.394;2023-01-15T08:02:44;17.30;;;12.20;;
52590;SDS011;38483;42.620;25.394;2023-01-15T08:06:05;17.03;;;10.87;;
52590;SDS011;38483;42.620;25.394;2023-01-15T08:09:26;15.83;;;10.20;;
52590;SDS011;38483;42.620;25.394;2023-01-15T08:12:48;16.60;;;10.20;;
52590;SDS011;38483;42.620;25.394;2023-01-15T08:16:25;17.10;;;10.40;;
52590;SDS011;38483;42.620;25.394;2023-01-15T08:19:46;16.83;;;10.07;;
52590;SDS011;38483;42.620;25.394;2023-01-15T08:23:07;21.27;;;12.33;;
52590;SDS011;38483;42.620;25.394;2023-01-15T08:26:29;18.70;;;11.13;;
52590;SDS011;38483;42.620;25.394;2023-01-15T08:29:51;15.47;;;9.70;;
52590;SDS011;38483;42.620;25.394;2023-01-15T08:33:11;16.23;;;9.73;;
52590;SDS011;38483;42.620;25.394;2023-01-15T08:36:31;22.10;;;12.60;;
52590;SDS011;38483;42.620;25.394;2023-01-15T08:39:52;17.07;;;9.87;;
52590;SDS011;38483;42.620;25.394;2023-01-15T08:43:13;19.20;;;11.13;;
52590;SDS011;38483;42.620;25.394;2023-01-15T08:46:33;14.90;;;8.90;;
52590;SDS011;38483;42.620;25.394;2023-01-15T08:49:45;15.27;;;9.23;;
52590;SDS011;38483;42.620;25.394;2023-01-15T08:52:16;14.30;;;9.37;;
52590;SDS011;38483;42.620;25.394;2023-01-15T08:54:43;13.47;;;8.97;;
52590;SDS011;38483;42.620;25.394;2023-01-15T08:57:10;16.07;;;9.57;;
52590;SDS011;38483;42.620;25.394;2023-01-15T08:59:39;14.97;;;10.37;;
52590;SDS011;38483;42.620;25.394;2023-01-15T09:02:10;21.50;;;12.47;;
52590;SDS011;38483;42.620;25.394;2023-01-15T09:04:40;17.77;;;11.50;;
52590;SDS011;38483;42.620;25.394;2023-01-15T09:07:07;18.70;;;11.03;;
52590;SDS011;38483;42.620;25.394;2023-01-15T09:09:34;20.67;;;12.40;;
52590;SDS011;38483;42.620;25.394;2023-01-15T09:12:01;18.43;;;11.37;;
52590;SDS011;38483;42.620;25.394;2023-01-15T09:14:28;18.80;;;12.07;;
52590;SDS011;38483;42.620;25.394;2023-01-15T09:17:15;20.70;;;13.10;;
52590;SDS011;38483;42.620;25.394;2023-01-15T09:19:42;22.97;;;13.40;;
52590;SDS011;38483;42.620;25.394;2023-01-15T09:22:09;24.53;;;14.73;;
52590;SDS011;38483;42.620;25.394;2023-01-15T09:24:36;25.07;;;13.93;;
52590;SDS011;38483;42.620;25.394;2023-01-15T09:27:03;22.80;;;13.10;;
52590;SDS011;38483;42.620;25.394;2023-01-15T09:29:30;19.57;;;11.50;;
52590;SDS011;38483;42.620;25.394;2023-01-15T09:31:57;23.30;;;13.43;;
52590;SDS011;38483;42.620;25.394;2023-01-15T09:34:24;26.03;;;15.47;;
52590;SDS011;38483;42.620;25.394;2023-01-15T09:36:51;26.73;;;16.80;;
52590;SDS011;38483;42.620;25.394;2023-01-15T09:39:18;20.77;;;11.90;;
52590;SDS011;38483;42.620;25.394;2023-01-15T09:41:50;20.37;;;12.03;;
52590;SDS011;38483;42.620;25.394;2023-01-15T09:45:10;26.27;;;15.23;;
52590;SDS011;38483;42.620;25.394;2023-01-15T09:48:48;25.33;;;15.00;;
52590;SDS011;38483;42.620;25.394;2023-01-15T09:51:20;23.60;;;13.40;;
52590;SDS011;38483;42.620;25.394;2023-01-15T09:57:17;25.53;;;14.07;;
52590;SDS011;38483;42.620;25.394;2023-01-15T09:59:46;23.10;;;13.63;;
52590;SDS011;38483;42.620;25.394;2023-01-15T10:02:22;22.80;;;11.30;;
52590;SDS011;38483;42.620;25.394;2023-01-15T10:04:58;25.30;;;13.87;;
52590;SDS011;38483;42.620;25.394;2023-01-15T10:10:21;18.77;;;11.43;;
52590;SDS011;38483;42.620;25.394;2023-01-15T10:12:53;21.00;;;11.90;;
52590;SDS011;38483;42.620;25.394;2023-01-15T10:17:58;22.37;;;11.57;;
52590;SDS011;38483;42.620;25.394;2023-01-15T10:23:19;25.40;;;15.10;;
52590;SDS011;38483;42.620;25.394;2023-01-15T10:26:10;21.13;;;12.90;;
52590;SDS011;38483;42.620;25.394;2023-01-15T10:31:33;25.10;;;14.80;;
52590;SDS011;38483;42.620;25.394;2023-01-15T10:34:22;22.60;;;13.03;;
52590;SDS011;38483;42.620;25.394;2023-01-15T10:42:15;25.10;;;13.47;;
52590;SDS011;38483;42.620;25.394;2023-01-15T10:48:18;20.87;;;11.37;;
52590;SDS011;38483;42.620;25.394;2023-01-15T10:50:49;21.13;;;12.77;;
52590;SDS011;38483;42.620;25.394;2023-01-15T10:56:07;23.57;;;13.07;;
52590;SDS011;38483;42.620;25.394;2023-01-15T10:58:43;23.40;;;13.70;;
52590;SDS011;38483;42.620;25.394;2023-01-15T11:01:15;27.17;;;16.70;;
52590;SDS011;38483;42.620;25.394;2023-01-15T11:03:45;28.33;;;14.73;;
52590;SDS011;38483;42.620;25.394;2023-01-15T11:06:13;23.53;;;13.13;;
52590;SDS011;38483;42.620;25.394;2023-01-15T11:08:44;21.73;;;13.27;;
52590;SDS011;38483;42.620;25.394;2023-01-15T11:11:39;25.73;;;14.20;;
52590;SDS011;38483;42.620;25.394;2023-01-15T11:14:36;26.43;;;14.20;;
52590;SDS011;38483;42.620;25.394;2023-01-15T11:20:24;25.77;;;14.93;;
52590;SDS011;38483;42.620;25.394;2023-01-15T11:22:55;22.77;;;13.93;;
52590;SDS011;38483;42.620;25.394;2023-01-15T11:25:31;31.47;;;17.23;;
52590;SDS011;38483;42.620;25.394;2023-01-15T11:28:00;27.10;;;14.80;;
52590;SDS011;38483;42.620;25.394;2023-01-15T11:33:04;23.47;;;12.63;;
52590;SDS011;38483;42.620;25.394;2023-01-15T11:35:33;20.57;;;12.07;;
52590;SDS011;38483;42.620;25.394;2023-01-15T11:38:10;19.90;;;12.53;;
52590;SDS011;38483;42.620;25.394;2023-01-15T11:40:49;25.63;;;12.93;;
52590;SDS011;38483;42.620;25.394;2023-01-15T11:43:20;20.30;;;11.40;;
52590;SDS011;38483;42.620;25.394;2023-01-15T11:46:24;26.47;;;15.03;;
52590;SDS011;38483;42.620;25.394;2023-01-15T11:49:13;22.43;;;13.97;;
52590;SDS011;38483;42.620;25.394;2023-01-15T11:52:02;23.07;;;13.60;;
52590;SDS011;38483;42.620;25.394;2023-01-15T11:54:41;18.00;;;11.83;;
52590;SDS011;38483;42.620;25.394;2023-01-15T11:57:11;18.60;;;10.50;;
52590;SDS011;38483;42.620;25.394;2023-01-15T11:59:53;18.53;;;10.07;;
52590;SDS011;38483;42.620;25.394;2023-01-15T12:02:24;16.13;;;10.17;;
52590;SDS011;38483;42.620;25.394;2023-01-15T12:05:34;19.57;;;12.40;;
52590;SDS011;38483;42.620;25.394;2023-01-15T12:08:02;19.90;;;12.23;;
52590;SDS011;38483;42.620;25.394;2023-01-15T12:10:53;22.23;;;13.43;;
52590;SDS011;38483;42.620;25.394;2023-01-15T12:28:43;22.67;;;15.03;;
52590;SDS011;38483;42.620;25.394;2023-01-15T12:31:00;25.23;;;16.37;;
52590;SDS011;38483;42.620;25.394;2023-01-15T12:36:18;24.50;;;14.07;;
52590;SDS011;38483;42.620;25.394;2023-01-15T12:38:50;26.37;;;14.90;;
52590;SDS011;38483;42.620;25.394;2023-01-15T12:41:40;23.50;;;13.77;;
52590;SDS011;38483;42.620;25.394;2023-01-15T12:47:28;19.70;;;11.77;;
52590;SDS011;38483;42.620;25.394;2023-01-15T12:49:59;21.37;;;12.83;;
52590;SDS011;38483;42.620;25.394;2023-01-15T12:52:35;22.23;;;13.03;;
52590;SDS011;38483;42.620;25.394;2023-01-15T12:55:08;20.07;;;11.67;;
52590;SDS011;38483;42.620;25.394;2023-01-15T12:57:48;21.87;;;12.30;;
52590;SDS011;38483;42.620;25.394;2023-01-15T13:00:24;21.30;;;11.70;;
52590;SDS011;38483;42.620;25.394;2023-01-15T13:03:16;20.70;;;12.87;;
52590;SDS011;38483;42.620;25.394;2023-01-15T13:05:52;19.40;;;12.20;;
52590;SDS011;38483;42.620;25.394;2023-01-15T13:08:41;16.40;;;10.33;;
52590;SDS011;38483;42.620;25.394;2023-01-15T13:11:26;18.83;;;10.67;;
52590;SDS011;38483;42.620;25.394;2023-01-15T13:13:53;21.73;;;13.37;;
52590;SDS011;38483;42.620;25.394;2023-01-15T13:16:34;18.83;;;10.60;;
52590;SDS011;38483;42.620;25.394;2023-01-15T13:19:19;20.17;;;11.13;;
52590;SDS011;38483;42.620;25.394;2023-01-15T13:21:48;18.03;;;11.30;;
52590;SDS011;38483;42.620;25.394;2023-01-15T13:32:33;23.87;;;13.03;;
52590;SDS011;38483;42.620;25.394;2023-01-15T13:35:11;20.07;;;13.43;;
52590;SDS011;38483;42.620;25.394;2023-01-15T13:37:40;16.53;;;10.43;;
52590;SDS011;38483;42.620;25.394;2023-01-15T13:42:52;20.77;;;11.77;;
52590;SDS011;38483;42.620;25.394;2023-01-15T13:45:23;14.77;;;10.17;;
52590;SDS011;38483;42.620;25.394;2023-01-15T13:47:57;17.60;;;10.17;;
52590;SDS011;38483;42.620;25.394;2023-01-15T13:50:53;20.10;;;11.30;;
52590;SDS011;38483;42.620;25.394;2023-01-15T13:56:09;24.17;;;14.90;;
52590;SDS011;38483;42.620;25.394;2023-01-15T14:09:25;24.97;;;15.77;;
52590;SDS011;38483;42.620;25.394;2023-01-15T14:14:50;28.63;;;16.00;;
52590;SDS011;38483;42.620;25.394;2023-01-15T14:17:44;29.17;;;16.53;;
52590;SDS011;38483;42.620;25.394;2023-01-15T14:34:56;21.07;;;11.57;;
52590;SDS011;38483;42.620;25.394;2023-01-15T14:39:57;18.03;;;10.50;;
52590;SDS011;38483;42.620;25.394;2023-01-15T14:42:30;17.17;;;10.73;;
52590;SDS011;38483;42.620;25.394;2023-01-15T14:48:10;19.97;;;10.80;;
52590;SDS011;38483;42.620;25.394;2023-01-15T14:50:44;16.97;;;10.43;;
52590;SDS011;38483;42.620;25.394;2023-01-15T14:55:45;18.67;;;12.20;;
52590;SDS011;38483;42.620;25.394;2023-01-15T15:01:13;22.00;;;13.07;;
52590;SDS011;38483;42.620;25.394;2023-01-15T15:06:19;26.97;;;16.20;;
52590;SDS011;38483;42.620;25.394;2023-01-15T15:08:47;24.67;;;14.00;;
52590;SDS011;38483;42.620;25.394;2023-01-15T15:11:27;28.37;;;16.10;;
52590;SDS011;38483;42.620;25.394;2023-01-15T15:14:23;25.23;;;13.87;;
52590;SDS011;38483;42.620;25.394;2023-01-15T15:16:52;21.43;;;13.77;;
52590;SDS011;38483;42.620;25.394;2023-01-15T15:19:28;24.80;;;13.00;;
52590;SDS011;38483;42.620;25.394;2023-01-15T15:22:06;20.83;;;13.07;;
52590;SDS011;38483;42.620;25.394;2023-01-15T15:24:42;22.40;;;13.70;;
52590;SDS011;38483;42.620;25.394;2023-01-15T15:27:20;20.40;;;12.53;;
52590;SDS011;38483;42.620;25.394;2023-01-15T15:29:49;23.27;;;14.07;;
52590;SDS011;38483;42.620;25.394;2023-01-15T15:32:17;24.93;;;15.13;;
52590;SDS011;38483;42.620;25.394;2023-01-15T15:34:47;27.27;;;16.90;;
52590;SDS011;38483;42.620;25.394;2023-01-15T15:37:23;30.27;;;20.10;;
52590;SDS011;38483;42.620;25.394;2023-01-15T15:39:54;34.13;;;22.77;;
52590;SDS011;38483;42.620;25.394;2023-01-15T15:46:24;32.57;;;19.07;;
52590;SDS011;38483;42.620;25.394;2023-01-15T15:50:18;37.03;;;23.67;;
52590;SDS011;38483;42.620;25.394;2023-01-15T15:53:38;27.33;;;16.20;;
52590;SDS011;38483;42.620;25.394;2023-01-15T15:57:22;36.03;;;23.00;;
52590;SDS011;38483;42.620;25.394;2023-01-15T16:00:27;32.27;;;20.87;;
52590;SDS011;38483;42.620;25.394;2023-01-15T16:03:48;32.23;;;19.33;;
52590;SDS011;38483;42.620;25.394;2023-01-15T16:07:13;35.13;;;20.60;;
52590;SDS011;38483;42.620;25.394;2023-01-15T16:10:33;37.07;;;21.63;;
52590;SDS011;38483;42.620;25.394;2023-01-15T16:13:54;38.57;;;22.27;;
52590;SDS011;38483;42.620;25.394;2023-01-15T16:17:14;30.57;;;20.03;;
52590;SDS011;38483;42.620;25.394;2023-01-15T16:20:34;36.03;;;22.23;;
52590;SDS011;38483;42.620;25.394;2023-01-15T16:23:59;39.33;;;23.50;;
52590;SDS011;38483;42.620;25.394;2023-01-15T16:27:22;40.17;;;25.27;;
52590;SDS011;38483;42.620;25.394;2023-01-15T16:30:42;29.93;;;18.73;;
52590;SDS011;38483;42.620;25.394;2023-01-15T16:34:03;26.63;;;16.20;;
52590;SDS011;38483;42.620;25.394;2023-01-15T16:37:25;28.83;;;16.50;;
52590;SDS011;38483;42.620;25.394;2023-01-15T16:40:48;30.53;;;17.97;;
52590;SDS011;38483;42.620;25.394;2023-01-15T16:44:25;33.47;;;19.53;;
52590;SDS011;38483;42.620;25.394;2023-01-15T16:47:43;29.90;;;18.00;;
52590;SDS011;38483;42.620;25.394;2023-01-15T16:53:59;41.50;;;23.60;;
52590;SDS011;38483;42.620;25.394;2023-01-15T16:59:02;24.03;;;15.33;;
52590;SDS011;38483;42.620;25.394;2023-01-15T17:01:43;23.43;;;14.10;;
52590;SDS011;38483;42.620;25.394;2023-01-15T17:04:16;22.03;;;13.93;;
52590;SDS011;38483;42.620;25.394;2023-01-15T17:06:55;23.30;;;15.10;;
52590;SDS011;38483;42.620;25.394;2023-01-15T17:09:29;23.53;;;14.60;;
52590;SDS011;38483;42.620;25.394;2023-01-15T17:12:02;29.20;;;18.23;;
52590;SDS011;38483;42.620;25.394;2023-01-15T17:14:33;23.17;;;15.00;;
52590;SDS011;38483;42.620;25.394;2023-01-15T17:17:44;23.13;;;14.73;;
52590;SDS011;38483;42.620;25.394;2023-01-15T17:19:54;18.70;;;12.27;;
52590;SDS011;38483;42.620;25.394;2023-01-15T17:22:29;15.80;;;10.33;;
52590;SDS011;38483;42.620;25.394;2023-01-15T17:24:58;15.73;;;9.87;;
52590;SDS011;38483;42.620;25.394;2023-01-15T17:27:27;16.43;;;11.10;;
52590;SDS011;38483;42.620;25.394;2023-01-15T17:29:55;19.93;;;12.50;;
52590;SDS011;38483;42.620;25.394;2023-01-15T17:32:24;17.73;;;12.87;;
52590;SDS011;38483;42.620;25.394;2023-01-15T17:34:58;20.30;;;12.80;;
52590;SDS011;38483;42.620;25.394;2023-01-15T17:37:25;23.87;;;14.40;;
52590;SDS011;38483;42.620;25.394;2023-01-15T17:39:52;20.80;;;14.23;;